首页
METAR-TAF:

METAR-TAF

机场 :

贾特拉帕蒂·希瓦吉国际机场

孟买, 印度

纬度: 19-07N, 经度: 072-51E, 海拔: 8米

当前天气观测

该预报发布于34分钟前的10:00 UTC
风速7节,风向西
温度 32°C
湿度 49%
气压 1010 hPa
能見度: 2500
多云层高于10000英尺

METAR: VABB 151000Z 28007KT 2500 FU BKN100 32/20 Q1010 NOSIG

时间: 16:04 (10:34 UTC)

预报

该预报发布于2小时和34分钟前的08:00 UTC
预报有效从15日的 09点(UTC)到 15日的 18点(UTC)
风速7节,风向西
能見度: 4000
成为
从 15日的 13点(UTC)到 15日的 15点(UTC)
风速5节,风向北转西北
能見度: 3000
成为
从 15日的 17点(UTC)到 15日的 18点(UTC)
风速4节,风向东北

TAF: VABB 150800Z 1509/1518 27007KT 4000 FU NSC BECMG 1513/1515 34005KT 3000 FU BECMG 1517/1518 05004KT

超过4000个机场的气象观测和天气预报(METAR&TAF报告)。

可查询的气象台以黄色和红色小点在地图上表示。

将鼠标移到小点上方,可查看气象台名称。

然后点击查看天气观测和预报。

如需切换地图:点击带黑十字的绿色按钮放大地图;点击带横线的绿色按钮缩小地图;或者点击绿色箭头查看邻近地区的地图。


METAR-TAF: